createdAt,value
2022-12-09T00:00:25.285Z,6.38
2022-12-09T00:03:30.796Z,6.63
2022-12-09T00:06:34.373Z,6.38
2022-12-09T00:09:37.225Z,6.45
2022-12-09T00:12:39.940Z,6.93
2022-12-09T00:15:43.398Z,5.80
2022-12-09T00:18:47.529Z,6.43
2022-12-09T00:21:50.330Z,6.03
2022-12-09T00:24:53.152Z,6.80
2022-12-09T00:27:56.161Z,6.38
2022-12-09T00:31:00.154Z,5.13
2022-12-09T00:34:05.494Z,4.88
2022-12-09T00:37:08.178Z,5.80
2022-12-09T00:40:11.958Z,5.38
2022-12-09T00:43:14.908Z,4.88
2022-12-09T00:46:17.760Z,4.68
2022-12-09T00:49:22.835Z,5.05
2022-12-09T00:52:25.823Z,4.88
2022-12-09T00:55:28.992Z,4.15
2022-12-09T00:58:31.739Z,4.20
2022-12-09T01:01:34.565Z,4.30
2022-12-09T01:04:39.222Z,3.92
2022-12-09T01:07:42.328Z,3.70
2022-12-09T01:10:45.920Z,3.35
2022-12-09T01:13:49.378Z,3.72
2022-12-09T01:16:52.102Z,3.83
2022-12-09T01:19:56.254Z,2.60
2022-12-09T01:22:59.014Z,3.58
2022-12-09T01:26:03.693Z,3.35
2022-12-09T01:29:06.792Z,2.75
2022-12-09T01:32:09.623Z,2.75
2022-12-09T01:35:13.923Z,2.90
2022-12-09T01:38:16.534Z,3.22
2022-12-09T01:41:20.691Z,2.92
2022-12-09T01:44:24.326Z,3.50
2022-12-09T01:47:27.270Z,3.35
2022-12-09T01:50:32.573Z,3.80
2022-12-09T01:53:36.920Z,3.78
2022-12-09T01:56:40.927Z,3.63
2022-12-09T01:59:46.172Z,4.03
2022-12-09T02:02:50.010Z,3.97
2022-12-09T02:05:57.304Z,4.03
2022-12-09T02:09:00.279Z,4.03
2022-12-09T02:12:11.405Z,3.40
2022-12-09T02:15:16.197Z,4.32
2022-12-09T02:18:22.494Z,4.38
2022-12-09T02:21:27.912Z,4.57
2022-12-09T02:24:33.019Z,4.90
2022-12-09T02:27:38.452Z,4.78
2022-12-09T02:30:46.024Z,4.70
2022-12-09T02:34:12.914Z,5.07
2022-12-09T02:37:19.609Z,4.80
2022-12-09T02:40:30.203Z,4.97
2022-12-09T02:43:36.781Z,4.55
2022-12-09T02:46:42.161Z,4.72
2022-12-09T02:49:47.876Z,5.68
2022-12-09T02:52:52.760Z,5.65
2022-12-09T02:55:56.702Z,4.90
2022-12-09T02:58:59.702Z,4.85
2022-12-09T03:02:13.503Z,6.18
2022-12-09T03:05:20.841Z,5.88
2022-12-09T03:08:30.766Z,6.32
2022-12-09T03:11:33.725Z,5.03
2022-12-09T03:14:38.418Z,5.43
2022-12-09T03:17:42.563Z,4.30
2022-12-09T03:20:46.418Z,5.35
2022-12-09T03:23:56.327Z,4.45
2022-12-09T03:27:00.530Z,5.20
2022-12-09T03:30:05.547Z,5.40
2022-12-09T03:33:10.403Z,5.85
2022-12-09T03:36:14.967Z,5.32
2022-12-09T03:39:22.477Z,5.07
2022-12-09T03:42:27.852Z,5.93
2022-12-09T03:45:30.913Z,5.97
2022-12-09T03:48:33.995Z,5.40
2022-12-09T03:51:38.343Z,5.20
2022-12-09T03:54:44.120Z,5.13
2022-12-09T03:57:49.005Z,6.30
2022-12-09T04:00:51.997Z,5.55
2022-12-09T04:03:56.338Z,6.22
2022-12-09T04:06:59.367Z,6.60
2022-12-09T04:10:03.749Z,7.15
2022-12-09T04:13:06.826Z,6.82
2022-12-09T04:16:10.153Z,6.13
2022-12-09T04:19:13.206Z,6.85
2022-12-09T04:22:15.854Z,6.80
2022-12-09T04:25:19.862Z,7.10
2022-12-09T04:28:25.350Z,7.03
2022-12-09T04:31:28.207Z,7.07
2022-12-09T04:34:30.944Z,6.82
2022-12-09T04:37:33.812Z,7.70
2022-12-09T04:40:38.566Z,7.13
2022-12-09T04:43:41.673Z,8.27
2022-12-09T04:46:45.083Z,7.18
2022-12-09T04:49:47.983Z,7.80
2022-12-09T04:52:50.877Z,8.43
2022-12-09T04:56:01.249Z,7.80
2022-12-09T04:59:06.283Z,6.90
2022-12-09T05:02:09.243Z,6.95
2022-12-09T05:05:13.137Z,7.10
2022-12-09T05:08:16.607Z,7.72
2022-12-09T05:11:23.677Z,7.25
2022-12-09T05:14:26.952Z,6.63
2022-12-09T05:17:29.839Z,8.13
2022-12-09T05:20:32.729Z,6.60
2022-12-09T05:23:36.288Z,6.68
2022-12-09T05:26:40.562Z,6.38
2022-12-09T05:29:43.243Z,6.60
2022-12-09T05:32:46.170Z,5.10
2022-12-09T05:35:52.676Z,7.10
2022-12-09T05:38:56.745Z,6.35
2022-12-09T05:42:00.705Z,5.85
2022-12-09T05:45:03.683Z,6.60
2022-12-09T05:48:06.828Z,7.00
2022-12-09T05:51:11.682Z,6.97
2022-12-09T05:54:14.565Z,6.38
2022-12-09T05:57:18.623Z,5.68
2022-12-09T06:00:22.665Z,10.40
2022-12-09T06:03:25.757Z,7.22
2022-12-09T06:06:30.353Z,6.63
2022-12-09T06:09:34.859Z,7.15
2022-12-09T06:12:39.334Z,8.65
2022-12-09T06:15:42.414Z,8.93
2022-12-09T06:18:45.369Z,7.85
2022-12-09T06:21:48.945Z,7.63
2022-12-09T06:24:56.867Z,7.63
2022-12-09T06:28:01.468Z,6.25
2022-12-09T06:31:04.375Z,6.22
2022-12-09T06:34:07.792Z,6.38
2022-12-09T06:37:11.019Z,7.03
2022-12-09T06:40:13.856Z,7.15
2022-12-09T06:43:18.019Z,7.47
2022-12-09T06:46:23.333Z,7.43
2022-12-09T06:49:26.990Z,8.70
2022-12-09T06:52:30.005Z,7.30
2022-12-09T06:55:33.037Z,7.80
2022-12-09T06:58:37.976Z,7.55
2022-12-09T07:01:41.085Z,8.77
2022-12-09T07:04:44.595Z,7.90
2022-12-09T07:07:51.434Z,7.75
2022-12-09T07:10:56.988Z,7.63
2022-12-09T07:14:02.073Z,7.25
2022-12-09T07:17:05.511Z,7.78
2022-12-09T07:20:09.421Z,7.68
2022-12-09T07:23:13.755Z,7.72
2022-12-09T07:26:17.076Z,7.97
2022-12-09T07:29:21.598Z,7.65
2022-12-09T07:32:24.507Z,6.78
2022-12-09T07:35:27.841Z,7.40
2022-12-09T07:38:31.584Z,6.80
2022-12-09T07:41:34.538Z,7.07
2022-12-09T07:44:39.923Z,7.28
2022-12-09T07:47:43.098Z,6.97
2022-12-09T07:50:46.121Z,6.15
2022-12-09T07:53:48.937Z,6.53
2022-12-09T07:56:51.873Z,7.35
2022-12-09T07:59:56.902Z,7.40
2022-12-09T08:03:00.103Z,7.32
2022-12-09T08:06:03.580Z,7.10
2022-12-09T08:09:08.209Z,7.40
2022-12-09T08:12:12.132Z,6.45
2022-12-09T08:15:19.506Z,6.60
2022-12-09T08:18:22.340Z,7.30
2022-12-09T08:21:25.735Z,7.25
2022-12-09T08:24:28.802Z,7.47
2022-12-09T08:27:31.802Z,6.28
2022-12-09T08:30:37.055Z,7.75
2022-12-09T08:33:40.698Z,6.75
2022-12-09T08:36:43.609Z,5.80
2022-12-09T08:39:46.585Z,5.82
2022-12-09T08:42:49.556Z,6.40
2022-12-09T08:45:53.972Z,6.50
2022-12-09T08:48:56.887Z,5.82
2022-12-09T08:52:00.491Z,6.65
2022-12-09T08:55:03.656Z,5.85
2022-12-09T08:58:06.531Z,6.03
2022-12-09T09:01:15.633Z,7.07
2022-12-09T09:04:20.388Z,5.75
2022-12-09T09:07:23.793Z,6.25
2022-12-09T09:10:27.001Z,6.25
2022-12-09T09:13:30.726Z,5.63
2022-12-09T09:16:35.747Z,6.43
2022-12-09T09:19:39.141Z,6.97
2022-12-09T09:22:41.809Z,6.03
2022-12-09T09:25:44.906Z,5.60
2022-12-09T09:28:48.236Z,6.22
2022-12-09T09:31:54.998Z,6.32
2022-12-09T09:34:58.683Z,5.85
2022-12-09T09:38:01.948Z,5.57
2022-12-09T09:41:08.868Z,6.13
2022-12-09T09:44:16.718Z,6.10
2022-12-09T09:47:38.935Z,6.63
2022-12-09T09:50:45.560Z,6.43
2022-12-09T09:53:51.217Z,5.65
2022-12-09T09:57:01.565Z,6.15
2022-12-09T10:00:10.087Z,5.95
2022-12-09T10:03:24.463Z,6.88
2022-12-09T10:06:33.463Z,6.90
2022-12-09T10:09:44.251Z,5.65
2022-12-09T10:13:05.864Z,5.75
2022-12-09T10:16:25.356Z,6.13
2022-12-09T10:19:33.763Z,6.25
2022-12-09T10:22:42.261Z,5.55
2022-12-09T10:25:49.981Z,6.07
2022-12-09T10:29:03.817Z,6.50
2022-12-09T10:32:16.225Z,6.15
2022-12-09T10:35:26.100Z,6.18
2022-12-09T10:38:34.934Z,6.00
2022-12-09T10:41:59.826Z,6.28
2022-12-09T10:45:08.596Z,5.88
2022-12-09T10:48:22.555Z,6.00
2022-12-09T10:51:32.075Z,5.13
2022-12-09T10:54:40.287Z,6.05
2022-12-09T10:57:50.655Z,5.93
2022-12-09T11:01:05.288Z,5.72
2022-12-09T11:04:14.243Z,6.10
2022-12-09T11:07:20.929Z,6.07
2022-12-09T11:10:26.820Z,5.95
2022-12-09T11:13:37.179Z,6.10
2022-12-09T11:16:55.392Z,5.78
2022-12-09T11:20:18.376Z,5.78
2022-12-09T11:23:30.116Z,5.93
2022-12-09T11:26:36.560Z,5.65
2022-12-09T11:29:39.700Z,5.45
2022-12-09T11:33:03.621Z,5.03
2022-12-09T11:36:11.587Z,6.28
2022-12-09T11:39:27.462Z,6.32
2022-12-09T11:42:45.837Z,5.82
2022-12-09T11:45:49.886Z,7.03
2022-12-09T11:48:59.749Z,6.70
2022-12-09T11:52:05.473Z,6.93
2022-12-09T11:55:25.536Z,7.22
2022-12-09T11:58:30.366Z,6.30
2022-12-09T12:01:49.176Z,6.90
2022-12-09T12:04:56.523Z,6.80
2022-12-09T12:08:08.971Z,6.80
2022-12-09T12:11:16.064Z,6.88
2022-12-09T12:14:23.703Z,6.60
2022-12-09T12:17:28.838Z,7.40
2022-12-09T12:20:40.708Z,6.10
2022-12-09T12:23:49.273Z,6.78
2022-12-09T12:26:57.385Z,7.10
2022-12-09T12:30:02.247Z,6.85
2022-12-09T12:36:36.565Z,7.50
2022-12-09T12:39:45.304Z,7.28
2022-12-09T12:43:12.433Z,7.57
2022-12-09T12:46:21.878Z,6.93
2022-12-09T12:49:45.907Z,6.97
2022-12-09T12:52:56.862Z,7.35
2022-12-09T12:56:01.221Z,8.00
2022-12-09T12:59:08.471Z,7.63
2022-12-09T13:02:16.842Z,6.10
2022-12-09T13:05:22.186Z,6.30
2022-12-09T13:08:27.888Z,7.53
2022-12-09T13:11:33.921Z,6.63
2022-12-09T13:14:40.306Z,7.43
2022-12-09T13:17:44.355Z,7.53
2022-12-09T13:20:48.358Z,6.82
2022-12-09T13:23:57.609Z,6.55
2022-12-09T13:27:01.638Z,6.28
2022-12-09T13:30:07.886Z,6.72
2022-12-09T13:33:19.249Z,7.22
2022-12-09T13:36:23.360Z,6.15
2022-12-09T13:39:44.604Z,6.10
2022-12-09T13:42:54.218Z,6.65
2022-12-09T13:45:59.643Z,5.63
2022-12-09T13:49:09.408Z,6.18
2022-12-09T13:52:12.041Z,5.45
2022-12-09T13:55:35.828Z,5.57
2022-12-09T13:58:49.859Z,5.90
2022-12-09T14:01:55.796Z,5.60
2022-12-09T14:05:02.578Z,5.70
2022-12-09T14:08:08.023Z,4.53
2022-12-09T14:11:34.501Z,5.13
2022-12-09T14:14:58.387Z,5.25
2022-12-09T14:18:04.436Z,5.35
2022-12-09T14:21:24.370Z,5.20
2022-12-09T14:24:35.257Z,5.60
2022-12-09T14:27:37.893Z,4.45
2022-12-09T14:30:48.381Z,4.70
2022-12-09T14:33:52.524Z,5.10
2022-12-09T14:36:57.573Z,5.47
2022-12-09T14:40:04.274Z,5.35
2022-12-09T14:43:20.784Z,6.38
2022-12-09T14:46:25.568Z,5.32
2022-12-09T14:49:30.383Z,6.60
2022-12-09T14:52:34.587Z,4.72
2022-12-09T14:55:39.500Z,5.55
2022-12-09T14:58:46.485Z,6.03
2022-12-09T15:01:50.294Z,6.65
2022-12-09T15:04:55.601Z,6.07
2022-12-09T15:07:58.833Z,6.10
2022-12-09T15:11:06.861Z,6.18
2022-12-09T15:14:28.559Z,6.22
2022-12-09T15:17:34.799Z,6.72
2022-12-09T15:20:40.591Z,5.75
2022-12-09T15:23:45.156Z,5.13
2022-12-09T15:26:57.252Z,5.22
2022-12-09T15:30:00.874Z,4.18
2022-12-09T15:33:05.506Z,6.22
2022-12-09T15:36:17.934Z,4.95
2022-12-09T15:39:26.039Z,4.38
2022-12-09T15:43:12.258Z,5.43
2022-12-09T15:46:50.425Z,5.63
2022-12-09T15:50:00.847Z,5.80
2022-12-09T15:53:33.787Z,5.97
2022-12-09T15:57:11.950Z,4.70
2022-12-09T16:00:48.736Z,5.35
2022-12-09T16:04:35.105Z,4.57
2022-12-09T16:07:56.566Z,4.82
2022-12-09T16:11:00.942Z,5.68
2022-12-09T16:14:25.078Z,4.72
2022-12-09T16:17:29.806Z,4.70
2022-12-09T16:20:35.169Z,4.55
2022-12-09T16:23:43.198Z,7.55
2022-12-09T16:26:51.689Z,6.72
2022-12-09T16:30:03.300Z,6.10
2022-12-09T16:33:24.609Z,6.80
2022-12-09T16:36:29.335Z,6.55
2022-12-09T16:39:59.484Z,6.68
2022-12-09T16:43:18.999Z,6.50
2022-12-09T16:46:39.020Z,7.22
2022-12-09T16:49:55.325Z,7.55
2022-12-09T16:53:01.906Z,9.00
2022-12-09T16:56:34.011Z,11.40
2022-12-09T17:00:24.301Z,12.48
2022-12-09T17:03:55.071Z,7.80
2022-12-09T17:07:17.075Z,7.72
2022-12-09T17:10:38.267Z,7.43
2022-12-09T17:14:08.838Z,7.55
2022-12-09T17:17:34.282Z,7.72
2022-12-09T17:20:53.231Z,11.18
2022-12-09T17:24:18.265Z,11.68
2022-12-09T17:28:03.416Z,9.35
2022-12-09T17:31:30.112Z,8.00
2022-12-09T17:34:44.402Z,8.65
2022-12-09T17:37:53.542Z,7.97
2022-12-09T17:41:38.102Z,6.85
2022-12-09T17:45:17.999Z,7.20
2022-12-09T17:48:50.707Z,8.65
2022-12-09T17:51:54.229Z,7.95
2022-12-09T17:55:10.852Z,7.40
2022-12-09T17:58:53.076Z,8.43
2022-12-09T18:02:03.571Z,7.95
2022-12-09T18:05:15.802Z,9.43
2022-12-09T18:08:40.699Z,7.82
2022-12-09T18:11:44.140Z,6.20
2022-12-09T18:14:49.772Z,5.38
2022-12-09T18:17:54.967Z,7.72
2022-12-09T18:21:00.504Z,8.85
2022-12-09T18:24:32.251Z,7.75
2022-12-09T18:31:40.832Z,6.20
2022-12-09T18:34:46.230Z,4.72
2022-12-09T18:37:49.278Z,8.32
2022-12-09T18:41:21.877Z,7.53
2022-12-09T18:44:25.545Z,7.90
2022-12-09T18:47:28.463Z,8.77
2022-12-09T18:50:57.936Z,8.05
2022-12-09T18:54:05.817Z,7.40
2022-12-09T18:57:58.150Z,7.93
2022-12-09T19:01:13.048Z,8.95
2022-12-09T19:04:16.662Z,8.75
2022-12-09T19:07:47.933Z,7.88
2022-12-09T19:11:20.165Z,7.50
2022-12-09T19:14:48.401Z,8.00
2022-12-09T19:18:07.452Z,7.57
2022-12-09T19:21:33.591Z,7.07
2022-12-09T19:24:54.224Z,8.15
2022-12-09T19:28:04.709Z,8.13
2022-12-09T19:31:31.117Z,6.53
2022-12-09T19:35:00.839Z,8.38
2022-12-09T19:38:05.233Z,7.53
2022-12-09T19:41:09.566Z,6.75
2022-12-09T19:45:01.307Z,7.90
2022-12-09T19:51:46.938Z,7.20
2022-12-09T19:54:50.511Z,7.53
2022-12-09T19:58:23.076Z,7.13
2022-12-09T20:01:34.416Z,7.57
2022-12-09T20:04:50.043Z,7.43
2022-12-09T20:07:55.991Z,8.48
2022-12-09T20:10:58.911Z,7.03
2022-12-09T20:14:31.714Z,7.80
2022-12-09T20:18:13.403Z,7.72
2022-12-09T20:21:17.563Z,8.02
2022-12-09T20:24:21.713Z,7.88
2022-12-09T20:27:45.604Z,7.45
2022-12-09T20:30:48.529Z,7.90
2022-12-09T20:33:58.533Z,7.38
2022-12-09T20:37:01.228Z,7.10
2022-12-09T20:40:09.747Z,8.75
2022-12-09T20:43:19.771Z,6.95
2022-12-09T20:46:26.014Z,9.20
2022-12-09T20:50:20.338Z,7.35
2022-12-09T20:58:07.299Z,7.93
2022-12-09T21:01:17.514Z,7.32
2022-12-09T21:04:32.187Z,8.25
2022-12-09T21:08:04.184Z,8.10
2022-12-09T21:11:50.148Z,7.03
2022-12-09T21:19:30.482Z,7.10
2022-12-09T21:22:33.972Z,7.75
2022-12-09T21:25:36.406Z,7.22
2022-12-09T21:28:39.466Z,7.20
2022-12-09T21:31:43.989Z,8.45
2022-12-09T21:34:48.034Z,7.80
2022-12-09T21:37:55.855Z,7.45
2022-12-09T21:41:01.629Z,7.85
2022-12-09T21:44:04.641Z,8.20
2022-12-09T21:47:07.128Z,7.35
2022-12-09T21:50:24.115Z,9.43
2022-12-09T21:53:28.335Z,7.93
2022-12-09T21:56:36.795Z,7.85
2022-12-09T21:59:39.491Z,8.60
2022-12-09T22:02:44.092Z,7.43
2022-12-09T22:05:48.052Z,8.18
2022-12-09T22:08:50.786Z,7.05
2022-12-09T22:11:53.530Z,8.25
2022-12-09T22:14:58.693Z,6.78
2022-12-09T22:18:01.407Z,7.22
2022-12-09T22:21:36.077Z,7.95
2022-12-09T22:24:30.406Z,8.20
2022-12-09T22:27:33.016Z,7.57
2022-12-09T22:30:36.494Z,7.95
2022-12-09T22:33:39.297Z,7.97
2022-12-09T22:36:43.609Z,8.40
2022-12-09T22:39:48.130Z,8.18
2022-12-09T22:42:51.288Z,8.27
2022-12-09T22:45:53.870Z,9.13
2022-12-09T22:48:56.698Z,8.25
2022-12-09T22:52:16.436Z,8.73
2022-12-09T22:55:23.442Z,8.52
2022-12-09T22:58:25.894Z,9.13
2022-12-09T23:01:30.681Z,8.13
2022-12-09T23:04:35.035Z,7.45
2022-12-09T23:07:38.937Z,7.00
2022-12-09T23:10:42.001Z,6.80
2022-12-09T23:13:51.049Z,8.25
2022-12-09T23:16:53.726Z,7.88
2022-12-09T23:19:56.308Z,7.95
2022-12-09T23:23:00.323Z,7.43
2022-12-09T23:26:04.846Z,7.57
2022-12-09T23:29:21.242Z,6.75
2022-12-09T23:32:38.592Z,7.53
2022-12-09T23:35:57.712Z,6.82
2022-12-09T23:39:02.466Z,6.13
2022-12-09T23:42:04.984Z,7.63
2022-12-09T23:45:09.738Z,7.07
2022-12-09T23:48:14.338Z,7.15
2022-12-09T23:51:27.233Z,7.40
2022-12-09T23:54:32.256Z,7.85
2022-12-09T23:57:35.034Z,6.47
